createdAt,value
2017-06-29T00:00:10.298Z,0
2017-06-29T00:01:11.689Z,0
2017-06-29T00:02:12.948Z,0
2017-06-29T00:03:14.300Z,0
2017-06-29T00:04:15.585Z,0
2017-06-29T00:05:16.845Z,0
2017-06-29T00:06:18.126Z,0
2017-06-29T00:07:19.483Z,0
2017-06-29T00:08:20.752Z,0
2017-06-29T00:09:21.997Z,0
2017-06-29T00:10:23.252Z,0
2017-06-29T00:11:24.517Z,0
2017-06-29T00:12:25.806Z,0
2017-06-29T00:13:27.039Z,0
2017-06-29T00:14:28.294Z,0
2017-06-29T00:15:29.627Z,0
2017-06-29T00:16:30.930Z,0
2017-06-29T00:17:32.217Z,0
2017-06-29T00:18:33.472Z,0
2017-06-29T00:19:34.781Z,0
2017-06-29T00:20:36.044Z,0
2017-06-29T00:21:37.357Z,0
2017-06-29T00:22:38.720Z,0
2017-06-29T00:23:39.926Z,0
2017-06-29T00:24:41.281Z,0
2017-06-29T00:25:42.589Z,0
2017-06-29T00:26:43.852Z,0
2017-06-29T00:27:45.215Z,0
2017-06-29T00:28:46.446Z,0
2017-06-29T00:29:47.709Z,0
2017-06-29T00:30:48.998Z,0
2017-06-29T00:31:50.255Z,0
2017-06-29T00:32:51.546Z,0
2017-06-29T00:33:52.796Z,0
2017-06-29T00:34:54.044Z,0
2017-06-29T00:35:55.290Z,0
2017-06-29T00:36:56.542Z,0
2017-06-29T00:37:57.835Z,0
2017-06-29T00:38:59.119Z,0
2017-06-29T00:40:00.401Z,0
2017-06-29T00:41:01.777Z,0
2017-06-29T00:42:03.015Z,0
2017-06-29T00:43:04.269Z,0
2017-06-29T00:44:05.580Z,0
2017-06-29T00:45:06.930Z,0
2017-06-29T00:46:08.163Z,0
2017-06-29T00:47:09.412Z,0
2017-06-29T00:48:10.688Z,0
2017-06-29T00:49:11.937Z,0
2017-06-29T00:50:13.214Z,0
2017-06-29T00:51:14.477Z,0
2017-06-29T00:52:15.782Z,0
2017-06-29T00:53:17.072Z,0
2017-06-29T00:54:18.328Z,0
2017-06-29T00:55:19.575Z,0
2017-06-29T00:56:20.878Z,0
2017-06-29T00:57:22.530Z,0
2017-06-29T00:58:23.782Z,0
2017-06-29T00:59:25.021Z,0
2017-06-29T01:00:26.310Z,0
2017-06-29T01:01:27.613Z,0
2017-06-29T01:02:28.927Z,0
2017-06-29T01:03:30.268Z,0
2017-06-29T01:04:31.740Z,0
2017-06-29T01:05:33.003Z,0
2017-06-29T01:06:34.437Z,0
2017-06-29T01:07:35.679Z,0
2017-06-29T01:08:37.047Z,0
2017-06-29T01:09:38.323Z,0
2017-06-29T01:10:39.590Z,0
2017-06-29T01:11:40.844Z,0
2017-06-29T01:12:42.154Z,0
2017-06-29T01:13:43.440Z,0
2017-06-29T01:14:44.714Z,0
2017-06-29T01:15:45.968Z,0
2017-06-29T01:16:47.232Z,0
2017-06-29T01:17:48.618Z,0
2017-06-29T01:18:49.871Z,0
2017-06-29T01:19:51.258Z,0
2017-06-29T01:20:52.575Z,0
2017-06-29T01:21:53.817Z,0
2017-06-29T01:22:55.083Z,0
2017-06-29T01:23:56.360Z,0
2017-06-29T01:24:57.584Z,0
2017-06-29T01:25:58.857Z,0
2017-06-29T01:27:00.140Z,0
2017-06-29T01:28:01.454Z,0
2017-06-29T01:29:02.734Z,0
2017-06-29T01:30:04.122Z,0
2017-06-29T01:31:05.441Z,0
2017-06-29T01:32:06.716Z,0
2017-06-29T01:33:07.977Z,0
2017-06-29T01:34:09.224Z,0
2017-06-29T01:35:10.473Z,0
2017-06-29T01:36:11.795Z,0
2017-06-29T01:37:13.025Z,0
2017-06-29T01:38:14.298Z,0
2017-06-29T01:39:15.549Z,0
2017-06-29T01:40:16.822Z,0
2017-06-29T01:41:18.109Z,0
2017-06-29T01:42:19.420Z,0
2017-06-29T01:43:20.700Z,0
2017-06-29T01:44:22.090Z,0
2017-06-29T01:45:23.392Z,0
2017-06-29T01:46:24.682Z,0
2017-06-29T01:47:26.015Z,0
2017-06-29T01:48:27.272Z,0
2017-06-29T01:49:28.571Z,0
2017-06-29T01:50:29.855Z,0
2017-06-29T01:51:31.126Z,0
2017-06-29T01:52:32.380Z,0
2017-06-29T01:53:33.661Z,0
2017-06-29T01:54:35.013Z,0
2017-06-29T01:55:36.295Z,0
2017-06-29T01:56:37.570Z,0
2017-06-29T01:57:38.860Z,0
2017-06-29T01:58:40.207Z,0
2017-06-29T01:59:41.521Z,0
2017-06-29T02:00:42.714Z,0
2017-06-29T02:01:43.986Z,0
2017-06-29T02:02:45.235Z,0
2017-06-29T02:03:46.480Z,0
2017-06-29T02:04:47.834Z,0
2017-06-29T02:05:49.129Z,0
2017-06-29T02:06:50.387Z,0
2017-06-29T02:07:51.788Z,0
2017-06-29T02:08:53.071Z,0
2017-06-29T02:09:54.376Z,0
2017-06-29T02:10:55.681Z,0
2017-06-29T02:11:56.995Z,0
2017-06-29T02:12:58.335Z,0
2017-06-29T02:13:59.556Z,0
2017-06-29T02:15:00.837Z,0
2017-06-29T02:16:02.286Z,0
2017-06-29T02:17:03.625Z,0
2017-06-29T02:18:04.866Z,0
2017-06-29T02:19:06.129Z,0
2017-06-29T02:20:07.374Z,0
2017-06-29T02:21:08.651Z,0
2017-06-29T02:22:09.975Z,0
2017-06-29T02:23:11.222Z,0
2017-06-29T02:24:12.464Z,0
2017-06-29T02:25:13.715Z,0
2017-06-29T02:26:14.984Z,4
2017-06-29T02:27:16.365Z,4
2017-06-29T02:28:17.638Z,4
2017-06-29T02:29:18.924Z,4
2017-06-29T02:30:20.186Z,0
2017-06-29T02:31:21.461Z,4
2017-06-29T02:32:22.752Z,4
2017-06-29T02:33:24.009Z,4
2017-06-29T02:34:25.244Z,8
2017-06-29T02:35:26.497Z,4
2017-06-29T02:36:27.759Z,8
2017-06-29T02:37:29.052Z,8
2017-06-29T02:38:30.310Z,8
2017-06-29T02:39:31.603Z,8
2017-06-29T02:40:32.890Z,8
2017-06-29T02:41:34.142Z,8
2017-06-29T02:42:35.489Z,12
2017-06-29T02:43:36.764Z,16
2017-06-29T02:44:38.003Z,16
2017-06-29T02:45:39.267Z,20
2017-06-29T02:46:40.527Z,20
2017-06-29T02:47:41.839Z,24
2017-06-29T02:48:43.116Z,24
2017-06-29T02:49:44.381Z,28
2017-06-29T02:50:45.633Z,28
2017-06-29T02:51:46.904Z,36
2017-06-29T02:52:48.221Z,40
2017-06-29T02:53:49.530Z,44
2017-06-29T02:54:50.827Z,48
2017-06-29T02:55:52.042Z,52
2017-06-29T02:56:53.345Z,56
2017-06-29T02:57:54.648Z,60
2017-06-29T02:58:55.954Z,68
2017-06-29T02:59:57.192Z,76
2017-06-29T03:00:58.447Z,84
2017-06-29T03:01:59.704Z,92
2017-06-29T03:03:00.985Z,100
2017-06-29T03:04:02.310Z,108
2017-06-29T03:05:03.584Z,116
2017-06-29T03:06:04.825Z,128
2017-06-29T03:07:06.079Z,140
2017-06-29T03:08:07.398Z,148
2017-06-29T03:09:08.692Z,164
2017-06-29T03:10:10.014Z,180
2017-06-29T03:11:11.299Z,196
2017-06-29T03:12:12.570Z,220
2017-06-29T03:13:13.840Z,248
2017-06-29T03:14:15.129Z,292
2017-06-29T03:15:16.481Z,336
2017-06-29T03:16:17.752Z,380
2017-06-29T03:17:19.061Z,428
2017-06-29T03:18:20.305Z,472
2017-06-29T03:19:21.574Z,520
2017-06-29T03:20:22.831Z,564
2017-06-29T03:21:24.157Z,608
2017-06-29T03:22:25.403Z,656
2017-06-29T03:23:26.694Z,704
2017-06-29T03:24:27.913Z,744
2017-06-29T03:25:29.172Z,784
2017-06-29T03:26:30.419Z,816
2017-06-29T03:27:31.716Z,852
2017-06-29T03:28:33.024Z,896
2017-06-29T03:29:34.354Z,944
2017-06-29T03:30:35.629Z,996
2017-06-29T03:31:36.874Z,1052
2017-06-29T03:32:38.126Z,1080
2017-06-29T03:33:39.446Z,1100
2017-06-29T03:34:40.791Z,1132
2017-06-29T03:35:42.056Z,1136
2017-06-29T03:36:43.328Z,1120
2017-06-29T03:37:44.582Z,1112
2017-06-29T03:38:45.903Z,1128
2017-06-29T03:39:47.152Z,1136
2017-06-29T03:40:48.417Z,1164
2017-06-29T03:41:49.752Z,1204
2017-06-29T03:42:50.999Z,1228
2017-06-29T03:43:52.252Z,1268
2017-06-29T03:44:53.504Z,1328
2017-06-29T03:45:54.733Z,1392
2017-06-29T03:46:56.095Z,1436
2017-06-29T03:47:57.359Z,1460
2017-06-29T03:48:58.581Z,1484
2017-06-29T03:49:59.880Z,1508
2017-06-29T03:51:01.270Z,1528
2017-06-29T03:52:02.417Z,1548
2017-06-29T03:53:03.708Z,1580
2017-06-29T03:54:04.984Z,1632
2017-06-29T03:55:06.294Z,1700
2017-06-29T03:56:07.557Z,1816
2017-06-29T03:57:08.840Z,1960
2017-06-29T03:58:10.148Z,2024
2017-06-29T03:59:11.521Z,2068
2017-06-29T04:00:12.761Z,2140
2017-06-29T04:01:14.001Z,2232
2017-06-29T04:02:15.260Z,2328
2017-06-29T04:03:16.515Z,2420
2017-06-29T04:04:17.830Z,2520
2017-06-29T04:05:19.119Z,2612
2017-06-29T04:06:20.455Z,2684
2017-06-29T04:07:21.705Z,2808
2017-06-29T04:08:23.024Z,2964
2017-06-29T04:09:24.274Z,3004
2017-06-29T04:10:25.541Z,3044
2017-06-29T04:11:26.863Z,3088
2017-06-29T04:12:28.135Z,3156
2017-06-29T04:13:29.378Z,3240
2017-06-29T04:14:30.668Z,3360
2017-06-29T04:15:32.014Z,3452
2017-06-29T04:16:33.327Z,3496
2017-06-29T04:17:34.590Z,3556
2017-06-29T04:18:35.843Z,3620
2017-06-29T04:19:37.107Z,3676
2017-06-29T04:20:38.351Z,3720
2017-06-29T04:21:39.658Z,3764
2017-06-29T04:22:40.983Z,3840
2017-06-29T04:23:42.296Z,3868
2017-06-29T04:24:43.574Z,3852
2017-06-29T04:25:44.872Z,3912
2017-06-29T04:26:46.143Z,4108
2017-06-29T04:27:47.398Z,4328
2017-06-29T04:28:48.663Z,4372
2017-06-29T04:29:49.956Z,4400
2017-06-29T04:30:51.257Z,4464
2017-06-29T04:31:52.557Z,4564
2017-06-29T04:32:53.935Z,4668
2017-06-29T04:33:55.246Z,4764
2017-06-29T04:34:56.527Z,4812
2017-06-29T04:35:57.807Z,4812
2017-06-29T04:36:59.056Z,4840
2017-06-29T04:38:00.377Z,4868
2017-06-29T04:39:01.750Z,4904
2017-06-29T04:40:02.982Z,4992
2017-06-29T04:41:04.464Z,5052
2017-06-29T04:42:05.782Z,5100
2017-06-29T04:43:07.038Z,5140
2017-06-29T04:44:08.300Z,5256
2017-06-29T04:45:09.669Z,5352
2017-06-29T04:46:10.965Z,5420
2017-06-29T04:47:12.221Z,5504
2017-06-29T04:48:13.569Z,5608
2017-06-29T04:49:14.871Z,5728
2017-06-29T04:50:16.211Z,5868
2017-06-29T04:51:17.490Z,6008
2017-06-29T04:52:18.811Z,6104
2017-06-29T04:53:20.140Z,6100
2017-06-29T04:54:21.409Z,6132
2017-06-29T04:55:22.658Z,6180
2017-06-29T04:56:23.901Z,6196
2017-06-29T04:57:25.237Z,6204
2017-06-29T04:58:26.445Z,6228
2017-06-29T04:59:27.716Z,6256
2017-06-29T05:00:28.993Z,6316
2017-06-29T05:01:30.254Z,6404
2017-06-29T05:02:31.572Z,6140
2017-06-29T05:03:32.851Z,5940
2017-06-29T05:04:34.119Z,5992
2017-06-29T05:05:35.445Z,6260
2017-06-29T05:06:36.728Z,6648
2017-06-29T05:07:38.061Z,7288
2017-06-29T05:08:39.351Z,7784
2017-06-29T05:09:40.592Z,8208
2017-06-29T05:10:41.843Z,8248
2017-06-29T05:11:43.104Z,7220
2017-06-29T05:12:44.411Z,6940
2017-06-29T05:13:45.816Z,7196
2017-06-29T05:14:47.178Z,8128
2017-06-29T05:15:48.456Z,9236
2017-06-29T05:16:49.764Z,9692
2017-06-29T05:17:50.991Z,9188
2017-06-29T05:18:52.304Z,8528
2017-06-29T05:19:53.600Z,7472
2017-06-29T05:20:54.889Z,7512
2017-06-29T05:21:56.138Z,7440
2017-06-29T05:22:57.486Z,7488
2017-06-29T05:23:58.781Z,8164
2017-06-29T05:25:00.089Z,9252
2017-06-29T05:26:01.400Z,9468
2017-06-29T05:27:02.656Z,11596
2017-06-29T05:28:03.921Z,13796
2017-06-29T05:29:05.205Z,12956
2017-06-29T05:30:06.445Z,12684
2017-06-29T05:31:07.854Z,13440
2017-06-29T05:32:09.147Z,12484
2017-06-29T05:33:10.403Z,11816
2017-06-29T05:34:11.664Z,12212
2017-06-29T05:35:12.960Z,12856
2017-06-29T05:36:14.439Z,13336
2017-06-29T05:37:15.696Z,12344
2017-06-29T05:38:16.939Z,11240
2017-06-29T05:39:18.178Z,11672
2017-06-29T05:40:19.439Z,11016
2017-06-29T05:41:20.708Z,10792
2017-06-29T05:42:21.993Z,11688
2017-06-29T05:43:23.266Z,11980
2017-06-29T05:44:24.510Z,11836
2017-06-29T05:45:25.742Z,13488
2017-06-29T05:46:27.029Z,14060
2017-06-29T05:47:28.334Z,14508
2017-06-29T05:48:29.661Z,13116
2017-06-29T05:49:30.942Z,11792
2017-06-29T05:50:32.211Z,12072
2017-06-29T05:51:33.484Z,9836
2017-06-29T05:52:34.737Z,9768
2017-06-29T05:53:36.051Z,9740
2017-06-29T05:54:37.417Z,9656
2017-06-29T05:55:38.696Z,9800
2017-06-29T05:56:39.955Z,11392
2017-06-29T05:57:41.215Z,12796
2017-06-29T05:58:42.579Z,13496
2017-06-29T05:59:43.920Z,18656
2017-06-29T06:00:45.209Z,14596
2017-06-29T06:01:46.485Z,13908
2017-06-29T06:02:47.763Z,11700
2017-06-29T06:03:49.028Z,10240
2017-06-29T06:04:50.528Z,9456
2017-06-29T06:05:51.801Z,9280
2017-06-29T06:06:53.061Z,9220
2017-06-29T06:07:54.284Z,9712
2017-06-29T06:08:55.551Z,10084
2017-06-29T06:09:56.874Z,9740
2017-06-29T06:10:58.138Z,10488
2017-06-29T06:11:59.407Z,12352
2017-06-29T06:13:00.676Z,29120
2017-06-29T06:14:01.917Z,13896
2017-06-29T06:15:03.181Z,19520
2017-06-29T06:16:04.463Z,19616
2017-06-29T06:17:05.988Z,23328
2017-06-29T06:18:07.280Z,37952
2017-06-29T06:19:08.561Z,39936
2017-06-29T06:20:09.830Z,41312
2017-06-29T06:21:11.209Z,27808
2017-06-29T06:22:12.357Z,43392
2017-06-29T06:23:13.688Z,41984
2017-06-29T06:24:15.005Z,43808
2017-06-29T06:25:16.272Z,45312
2017-06-29T06:26:17.559Z,42272
2017-06-29T06:27:18.812Z,42784
2017-06-29T06:28:20.109Z,40384
2017-06-29T06:29:21.374Z,40384
2017-06-29T06:30:22.641Z,41600
2017-06-29T06:31:23.932Z,40992
2017-06-29T06:32:25.211Z,43040
2017-06-29T06:33:26.494Z,38400
2017-06-29T06:34:27.929Z,41568
2017-06-29T06:35:29.184Z,41120
2017-06-29T06:36:30.447Z,37728
2017-06-29T06:37:31.760Z,40096
2017-06-29T06:38:33.029Z,35808
2017-06-29T06:39:34.303Z,27200
2017-06-29T06:40:35.621Z,31808
2017-06-29T06:41:36.889Z,40736
2017-06-29T06:42:38.156Z,25696
2017-06-29T06:43:39.568Z,41600
2017-06-29T06:44:40.801Z,40896
2017-06-29T06:45:42.177Z,41632
2017-06-29T06:46:43.458Z,42272
2017-06-29T06:47:44.722Z,44544
2017-06-29T06:48:46.009Z,37152
2017-06-29T06:49:47.361Z,19040
2017-06-29T06:50:48.525Z,40064
2017-06-29T06:51:49.850Z,30112
2017-06-29T06:52:51.131Z,33184
2017-06-29T06:53:52.423Z,24160
2017-06-29T06:54:53.720Z,24832
2017-06-29T06:55:55.001Z,15060
2017-06-29T06:56:56.294Z,12824
2017-06-29T06:57:57.604Z,9332
2017-06-29T06:58:58.933Z,12136
2017-06-29T07:00:00.237Z,21120
2017-06-29T07:01:01.548Z,18976
2017-06-29T07:02:02.836Z,20224
2017-06-29T07:03:04.144Z,29280
2017-06-29T07:04:05.411Z,15816
2017-06-29T07:05:06.678Z,15320
2017-06-29T07:06:08.001Z,13328
2017-06-29T07:07:09.247Z,13608
2017-06-29T07:08:10.537Z,12700
2017-06-29T07:09:12.010Z,10644
2017-06-29T07:10:13.269Z,9788
2017-06-29T07:11:14.500Z,9316
2017-06-29T07:12:15.769Z,8248
2017-06-29T07:13:17.050Z,6908
2017-06-29T07:14:18.383Z,5220
2017-06-29T07:15:19.658Z,4660
2017-06-29T07:16:20.931Z,4444
2017-06-29T07:17:22.186Z,6972
2017-06-29T07:18:23.459Z,8008
2017-06-29T07:19:24.734Z,9560
2017-06-29T07:20:26.049Z,11024
2017-06-29T07:21:27.322Z,12708
2017-06-29T07:22:28.609Z,13040
2017-06-29T07:23:29.860Z,14304
2017-06-29T07:24:31.103Z,20384
2017-06-29T07:25:32.482Z,24736
2017-06-29T07:26:33.994Z,19488
2017-06-29T07:27:35.320Z,12656
2017-06-29T07:28:36.602Z,12716
2017-06-29T07:29:37.858Z,11596
2017-06-29T07:30:39.161Z,9668
2017-06-29T07:31:40.411Z,7544
2017-06-29T07:32:41.673Z,6912
2017-06-29T07:33:42.982Z,7732
2017-06-29T07:34:44.260Z,7620
2017-06-29T07:35:45.543Z,7432
2017-06-29T07:36:46.820Z,7596
2017-06-29T07:37:48.104Z,8040
2017-06-29T07:38:49.411Z,6372
2017-06-29T07:39:50.696Z,7052
2017-06-29T07:40:52.013Z,10748
2017-06-29T07:41:53.295Z,14448
2017-06-29T07:42:54.535Z,14548
2017-06-29T07:43:55.835Z,14420
2017-06-29T07:44:57.131Z,15156
2017-06-29T07:45:58.407Z,15368
2017-06-29T07:46:59.748Z,16152
2017-06-29T07:48:01.021Z,14048
2017-06-29T07:49:02.373Z,11352
2017-06-29T07:50:03.642Z,9340
2017-06-29T07:51:04.863Z,7516
2017-06-29T07:52:06.135Z,6376
2017-06-29T07:53:07.433Z,5684
2017-06-29T07:54:08.665Z,5800
2017-06-29T07:55:09.930Z,6844
2017-06-29T07:56:11.278Z,7900
2017-06-29T07:57:12.530Z,9160
2017-06-29T07:58:13.831Z,10504
2017-06-29T07:59:15.111Z,10960
2017-06-29T08:00:16.395Z,9952
2017-06-29T08:01:17.730Z,8096
2017-06-29T08:02:18.979Z,7296
2017-06-29T08:03:20.263Z,6784
2017-06-29T08:04:21.561Z,6492
2017-06-29T08:05:22.860Z,6804
2017-06-29T08:06:24.203Z,7648
2017-06-29T08:07:25.504Z,9144
2017-06-29T08:08:26.750Z,11048
2017-06-29T08:09:28.034Z,12092
2017-06-29T08:10:29.287Z,12640
2017-06-29T08:11:30.598Z,12064
2017-06-29T08:12:32.000Z,10504
2017-06-29T08:13:33.267Z,9268
2017-06-29T08:14:34.519Z,8676
2017-06-29T08:15:35.793Z,8148
2017-06-29T08:16:37.021Z,6608
2017-06-29T08:17:38.373Z,5684
2017-06-29T08:18:39.654Z,5076
2017-06-29T08:19:40.899Z,4932
2017-06-29T08:20:42.178Z,4572
2017-06-29T08:21:43.433Z,4728
2017-06-29T08:22:44.712Z,4644
2017-06-29T08:23:45.949Z,3240
2017-06-29T08:24:47.281Z,2280
2017-06-29T08:25:48.543Z,2048
2017-06-29T08:26:49.894Z,2016
2017-06-29T08:27:51.172Z,1968
2017-06-29T08:28:52.450Z,2200
2017-06-29T08:29:53.850Z,2684
2017-06-29T08:30:55.136Z,3308
2017-06-29T08:31:56.379Z,3772
2017-06-29T08:32:57.632Z,4364
2017-06-29T08:33:58.873Z,4568
2017-06-29T08:35:00.148Z,4772
2017-06-29T08:36:01.423Z,5664
2017-06-29T08:37:02.706Z,6460
2017-06-29T08:38:03.980Z,6960
2017-06-29T08:39:05.274Z,7400
2017-06-29T08:40:06.509Z,7020
2017-06-29T08:41:07.790Z,6440
2017-06-29T08:42:09.056Z,6288
2017-06-29T08:43:10.311Z,6704
2017-06-29T08:44:11.574Z,7308
2017-06-29T08:45:12.798Z,8312
2017-06-29T08:46:14.091Z,9588
2017-06-29T08:47:15.358Z,11208
2017-06-29T08:48:16.631Z,12324
2017-06-29T08:49:17.889Z,13404
2017-06-29T08:50:19.161Z,15068
2017-06-29T08:51:20.438Z,17408
2017-06-29T08:52:21.725Z,20320
2017-06-29T08:53:23.023Z,21600
2017-06-29T08:54:24.243Z,19744
2017-06-29T08:55:25.518Z,19616
2017-06-29T08:56:26.787Z,19552
2017-06-29T08:57:28.023Z,19520
2017-06-29T08:58:29.277Z,19136
2017-06-29T08:59:30.553Z,17728
2017-06-29T09:00:31.878Z,16172
2017-06-29T09:01:33.172Z,13328
2017-06-29T09:02:34.446Z,10280
2017-06-29T09:03:35.692Z,7268
2017-06-29T09:04:36.967Z,4648
2017-06-29T09:05:38.259Z,3272
2017-06-29T09:06:39.639Z,2760
2017-06-29T09:07:40.933Z,2388
2017-06-29T09:08:42.172Z,2720
2017-06-29T09:09:43.445Z,3616
2017-06-29T09:10:44.734Z,4480
2017-06-29T09:11:46.146Z,5180
2017-06-29T09:12:47.410Z,5300
2017-06-29T09:13:48.661Z,5968
2017-06-29T09:14:49.925Z,6592
2017-06-29T09:15:51.200Z,7180
2017-06-29T09:16:52.460Z,7716
2017-06-29T09:17:53.764Z,8176
2017-06-29T09:18:55.066Z,8532
2017-06-29T09:19:56.303Z,8840
2017-06-29T09:20:57.578Z,9100
2017-06-29T09:21:58.854Z,9568
2017-06-29T09:23:00.102Z,10176
2017-06-29T09:24:01.436Z,11044
2017-06-29T09:25:02.692Z,12384
2017-06-29T09:26:03.982Z,14088
2017-06-29T09:27:05.228Z,15904
2017-06-29T09:28:06.503Z,17504
2017-06-29T09:29:07.782Z,17600
2017-06-29T09:30:09.071Z,17120
2017-06-29T09:31:10.346Z,16548
2017-06-29T09:32:11.621Z,16460
2017-06-29T09:33:12.866Z,16896
2017-06-29T09:34:14.118Z,17440
2017-06-29T09:35:15.481Z,17408
2017-06-29T09:36:16.747Z,17504
2017-06-29T09:37:18.032Z,17280
2017-06-29T09:38:19.300Z,17120
2017-06-29T09:39:20.557Z,16448
2017-06-29T09:40:21.837Z,15296
2017-06-29T09:41:23.137Z,14768
2017-06-29T09:42:24.434Z,14544
2017-06-29T09:43:25.762Z,14268
2017-06-29T09:44:27.099Z,14392
2017-06-29T09:45:28.354Z,14260
2017-06-29T09:46:29.684Z,14484
2017-06-29T09:47:30.971Z,15080
2017-06-29T09:48:32.206Z,15516
2017-06-29T09:49:33.606Z,15680
2017-06-29T09:50:34.857Z,15204
2017-06-29T09:51:36.115Z,13824
2017-06-29T09:52:37.433Z,12840
2017-06-29T09:53:38.721Z,11500
2017-06-29T09:54:40.024Z,10120
2017-06-29T09:55:41.255Z,9560
2017-06-29T09:56:42.502Z,9092
2017-06-29T09:57:43.790Z,8884
2017-06-29T09:58:45.091Z,8628
2017-06-29T09:59:46.420Z,8768
2017-06-29T10:00:47.704Z,8836
2017-06-29T10:01:48.971Z,8432
2017-06-29T10:02:50.240Z,7772
2017-06-29T10:03:51.574Z,7212
2017-06-29T10:04:52.849Z,7300
2017-06-29T10:05:54.123Z,6720
2017-06-29T10:06:55.430Z,6480
2017-06-29T10:07:56.711Z,6816
2017-06-29T10:08:57.966Z,7404
2017-06-29T10:09:59.225Z,6832
2017-06-29T10:11:00.514Z,6396
2017-06-29T10:12:01.820Z,6116
2017-06-29T10:13:03.079Z,5732
2017-06-29T10:14:04.361Z,5736
2017-06-29T10:15:05.644Z,6312
2017-06-29T10:16:06.901Z,7704
2017-06-29T10:17:08.250Z,9216
2017-06-29T10:18:09.574Z,10472
2017-06-29T10:19:10.846Z,11504
2017-06-29T10:20:12.129Z,12264
2017-06-29T10:21:13.379Z,12588
2017-06-29T10:22:14.678Z,12704
2017-06-29T10:23:15.986Z,12648
2017-06-29T10:24:17.260Z,12260
2017-06-29T10:25:18.509Z,12048
2017-06-29T10:26:19.805Z,11640
2017-06-29T10:27:21.039Z,11364
2017-06-29T10:28:22.741Z,11076
2017-06-29T10:29:23.884Z,10372
2017-06-29T10:30:25.177Z,9768
2017-06-29T10:31:26.475Z,8944
2017-06-29T10:32:27.804Z,8844
2017-06-29T10:33:29.163Z,10580
2017-06-29T10:34:30.444Z,12672
2017-06-29T10:35:31.775Z,14160
2017-06-29T10:36:33.036Z,15224
2017-06-29T10:37:34.317Z,15612
2017-06-29T10:38:35.670Z,15908
2017-06-29T10:39:36.947Z,13368
2017-06-29T10:40:38.270Z,11368
2017-06-29T10:41:39.544Z,13580
2017-06-29T10:42:40.812Z,16348
2017-06-29T10:43:42.253Z,16396
2017-06-29T10:44:43.568Z,15896
2017-06-29T10:45:44.797Z,15768
2017-06-29T10:46:46.066Z,16028
2017-06-29T10:47:47.347Z,17216
2017-06-29T10:48:48.636Z,18464
2017-06-29T10:49:50.045Z,19136
2017-06-29T10:50:51.305Z,19200
2017-06-29T10:51:52.575Z,19456
2017-06-29T10:52:53.860Z,19104
2017-06-29T10:53:55.155Z,19040
2017-06-29T10:54:56.426Z,17600
2017-06-29T10:55:57.805Z,16608
2017-06-29T10:56:59.051Z,17984
2017-06-29T10:58:00.341Z,17984
2017-06-29T10:59:01.614Z,15520
2017-06-29T11:00:02.910Z,16140
2017-06-29T11:01:04.174Z,17152
2017-06-29T11:02:05.460Z,17248
2017-06-29T11:03:06.719Z,15508
2017-06-29T11:04:08.056Z,14048
2017-06-29T11:05:09.342Z,13124
2017-06-29T11:06:10.678Z,11020
2017-06-29T11:07:11.986Z,9628
2017-06-29T11:08:13.244Z,9304
2017-06-29T11:09:14.528Z,9064
2017-06-29T11:10:15.878Z,8696
2017-06-29T11:11:17.197Z,9904
2017-06-29T11:12:18.530Z,11300
2017-06-29T11:13:19.857Z,10288
2017-06-29T11:14:21.084Z,10048
2017-06-29T11:15:22.355Z,13148
2017-06-29T11:16:23.624Z,17216
2017-06-29T11:17:24.863Z,18464
2017-06-29T11:18:26.192Z,18432
2017-06-29T11:19:27.533Z,19296
2017-06-29T11:20:28.813Z,18304
2017-06-29T11:21:30.113Z,17120
2017-06-29T11:22:31.366Z,13648
2017-06-29T11:23:32.643Z,15960
2017-06-29T11:24:33.908Z,16704
2017-06-29T11:25:35.247Z,17632
2017-06-29T11:26:36.513Z,19840
2017-06-29T11:27:37.777Z,21056
2017-06-29T11:28:39.028Z,21440
2017-06-29T11:29:40.308Z,22240
2017-06-29T11:30:41.560Z,22784
2017-06-29T11:31:42.843Z,23232
2017-06-29T11:32:44.163Z,23488
2017-06-29T11:33:45.472Z,23584
2017-06-29T11:34:46.807Z,22944
2017-06-29T11:35:48.133Z,22464
2017-06-29T11:36:49.421Z,22176
2017-06-29T11:37:50.701Z,20960
2017-06-29T11:38:51.962Z,22112
2017-06-29T11:39:53.274Z,21792
2017-06-29T11:40:54.588Z,22048
2017-06-29T11:41:55.903Z,21088
2017-06-29T11:42:57.170Z,18880
2017-06-29T11:43:58.438Z,15052
2017-06-29T11:44:59.743Z,11872
2017-06-29T11:46:01.009Z,10424
2017-06-29T11:47:02.350Z,7876
2017-06-29T11:48:03.694Z,9512
2017-06-29T11:49:04.934Z,15016
2017-06-29T11:50:06.232Z,17536
2017-06-29T11:51:07.533Z,12980
2017-06-29T11:52:08.866Z,9376
2017-06-29T11:53:10.203Z,9432
2017-06-29T11:54:11.473Z,10464
2017-06-29T11:55:12.764Z,8232
2017-06-29T11:56:14.038Z,7780
2017-06-29T11:57:15.335Z,7516
2017-06-29T11:58:16.616Z,8884
2017-06-29T11:59:17.954Z,12952
2017-06-29T12:00:19.230Z,12720
2017-06-29T12:01:20.527Z,12696
2017-06-29T12:02:21.884Z,9704
2017-06-29T12:03:23.069Z,8848
2017-06-29T12:04:24.616Z,8876
2017-06-29T12:05:25.899Z,8480
2017-06-29T12:06:27.166Z,6612
2017-06-29T12:07:28.440Z,5772
2017-06-29T12:08:29.718Z,4840
2017-06-29T12:09:31.002Z,3884
2017-06-29T12:10:32.268Z,3172
2017-06-29T12:11:33.675Z,3008
2017-06-29T12:12:34.960Z,2608
2017-06-29T12:13:36.219Z,3020
2017-06-29T12:14:37.560Z,3596
2017-06-29T12:15:38.789Z,3488
2017-06-29T12:16:40.098Z,3248
2017-06-29T12:17:41.382Z,3192
2017-06-29T12:18:42.624Z,3288
2017-06-29T12:19:43.891Z,3852
2017-06-29T12:20:45.206Z,4724
2017-06-29T12:21:46.482Z,6088
2017-06-29T12:22:47.768Z,6632
2017-06-29T12:23:49.023Z,5992
2017-06-29T12:24:50.274Z,4496
2017-06-29T12:25:51.549Z,4744
2017-06-29T12:26:52.838Z,6976
2017-06-29T12:27:54.097Z,10324
2017-06-29T12:28:55.363Z,13524
2017-06-29T12:29:56.609Z,14948
2017-06-29T12:30:57.891Z,14284
2017-06-29T12:31:59.164Z,11884
2017-06-29T12:33:00.549Z,11392
2017-06-29T12:34:01.856Z,10856
2017-06-29T12:35:03.098Z,6732
2017-06-29T12:36:04.374Z,4748
2017-06-29T12:37:05.629Z,3688
2017-06-29T12:38:07.002Z,2760
2017-06-29T12:39:08.220Z,3308
2017-06-29T12:40:09.558Z,4124
2017-06-29T12:41:10.834Z,4964
2017-06-29T12:42:12.103Z,6884
2017-06-29T12:43:13.384Z,7540
2017-06-29T12:44:14.759Z,7148
2017-06-29T12:45:16.151Z,7532
2017-06-29T12:46:17.430Z,7876
2017-06-29T12:47:18.687Z,6952
2017-06-29T12:48:19.982Z,6100
2017-06-29T12:49:21.239Z,5032
2017-06-29T12:50:22.488Z,4516
2017-06-29T12:51:23.813Z,4024
2017-06-29T12:52:25.052Z,3912
2017-06-29T12:53:26.339Z,3760
2017-06-29T12:54:27.625Z,3944
2017-06-29T12:55:28.883Z,4612
2017-06-29T12:56:30.282Z,4944
2017-06-29T12:57:31.640Z,4512
2017-06-29T12:58:32.904Z,4216
2017-06-29T12:59:34.177Z,4196
2017-06-29T13:00:35.424Z,4148
2017-06-29T13:01:36.745Z,4216
2017-06-29T13:02:38.112Z,4208
2017-06-29T13:03:39.374Z,4540
2017-06-29T13:04:40.701Z,4472
2017-06-29T13:05:41.931Z,4908
2017-06-29T13:06:43.234Z,5500
2017-06-29T13:07:44.573Z,5584
2017-06-29T13:08:45.816Z,5220
2017-06-29T13:09:47.105Z,5716
2017-06-29T13:10:48.339Z,6224
2017-06-29T13:11:49.634Z,6528
2017-06-29T13:12:50.871Z,6568
2017-06-29T13:13:52.161Z,6488
2017-06-29T13:14:53.443Z,6556
2017-06-29T13:15:54.692Z,7236
2017-06-29T13:16:55.969Z,7944
2017-06-29T13:17:57.224Z,7996
2017-06-29T13:18:58.547Z,8168
2017-06-29T13:19:59.869Z,8428
2017-06-29T13:21:01.172Z,8212
2017-06-29T13:22:02.441Z,8000
2017-06-29T13:23:03.709Z,8296
2017-06-29T13:24:04.987Z,7488
2017-06-29T13:25:06.265Z,6756
2017-06-29T13:26:07.547Z,6232
2017-06-29T13:27:08.781Z,6120
2017-06-29T13:28:10.154Z,5704
2017-06-29T13:29:11.407Z,5448
2017-06-29T13:30:12.810Z,5412
2017-06-29T13:31:14.179Z,5464
2017-06-29T13:32:15.481Z,5636
2017-06-29T13:33:16.842Z,6084
2017-06-29T13:34:18.087Z,6260
2017-06-29T13:35:19.370Z,6812
2017-06-29T13:36:20.661Z,7180
2017-06-29T13:37:21.906Z,7368
2017-06-29T13:38:23.152Z,7720
2017-06-29T13:39:24.469Z,7652
2017-06-29T13:40:25.796Z,7696
2017-06-29T13:41:27.032Z,7748
2017-06-29T13:42:28.421Z,8172
2017-06-29T13:43:29.723Z,8564
2017-06-29T13:44:31.023Z,8928
2017-06-29T13:45:32.296Z,9200